sensor_id;sensor_type;location;lat;lon;timestamp;P1;durP1;ratioP1;P2;durP2;ratioP2
68247;SDS011;55064;49.636;12.164;2023-02-23T00:01:37;28.40;;;11.48;;
68247;SDS011;55064;49.636;12.164;2023-02-23T00:04:07;26.07;;;10.73;;
68247;SDS011;55064;49.636;12.164;2023-02-23T00:06:33;17.63;;;8.55;;
68247;SDS011;55064;49.636;12.164;2023-02-23T00:09:00;18.48;;;8.43;;
68247;SDS011;55064;49.636;12.164;2023-02-23T00:11:27;17.30;;;8.35;;
68247;SDS011;55064;49.636;12.164;2023-02-23T00:13:53;15.43;;;7.97;;
68247;SDS011;55064;49.636;12.164;2023-02-23T00:16:21;14.93;;;8.23;;
68247;SDS011;55064;49.636;12.164;2023-02-23T00:18:49;15.45;;;7.82;;
68247;SDS011;55064;49.636;12.164;2023-02-23T00:23:47;16.48;;;8.27;;
68247;SDS011;55064;49.636;12.164;2023-02-23T00:26:15;17.65;;;7.78;;
68247;SDS011;55064;49.636;12.164;2023-02-23T00:28:44;18.67;;;8.43;;
68247;SDS011;55064;49.636;12.164;2023-02-23T00:31:09;19.15;;;9.02;;
68247;SDS011;55064;49.636;12.164;2023-02-23T00:33:37;23.27;;;9.70;;
68247;SDS011;55064;49.636;12.164;2023-02-23T00:36:07;20.83;;;9.68;;
68247;SDS011;55064;49.636;12.164;2023-02-23T00:38:38;22.20;;;9.30;;
68247;SDS011;55064;49.636;12.164;2023-02-23T00:41:22;17.23;;;7.73;;
68247;SDS011;55064;49.636;12.164;2023-02-23T00:43:49;14.82;;;6.68;;
68247;SDS011;55064;49.636;12.164;2023-02-23T00:46:16;12.20;;;5.45;;
68247;SDS011;55064;49.636;12.164;2023-02-23T00:48:47;11.55;;;5.07;;
68247;SDS011;55064;49.636;12.164;2023-02-23T00:51:15;13.45;;;5.05;;
68247;SDS011;55064;49.636;12.164;2023-02-23T00:53:42;10.63;;;5.17;;
68247;SDS011;55064;49.636;12.164;2023-02-23T00:56:09;13.10;;;5.32;;
68247;SDS011;55064;49.636;12.164;2023-02-23T00:58:38;9.90;;;4.55;;
68247;SDS011;55064;49.636;12.164;2023-02-23T01:01:07;11.63;;;6.47;;
68247;SDS011;55064;49.636;12.164;2023-02-23T01:03:34;12.05;;;5.40;;
68247;SDS011;55064;49.636;12.164;2023-02-23T01:06:00;14.18;;;5.15;;
68247;SDS011;55064;49.636;12.164;2023-02-23T01:08:29;11.35;;;5.50;;
68247;SDS011;55064;49.636;12.164;2023-02-23T01:10:56;10.70;;;4.93;;
68247;SDS011;55064;49.636;12.164;2023-02-23T01:13:22;11.38;;;4.78;;
68247;SDS011;55064;49.636;12.164;2023-02-23T01:15:48;11.15;;;4.90;;
68247;SDS011;55064;49.636;12.164;2023-02-23T01:18:16;12.35;;;4.97;;
68247;SDS011;55064;49.636;12.164;2023-02-23T01:20:43;13.48;;;5.60;;
68247;SDS011;55064;49.636;12.164;2023-02-23T01:23:13;12.10;;;5.60;;
68247;SDS011;55064;49.636;12.164;2023-02-23T01:25:40;11.07;;;5.00;;
68247;SDS011;55064;49.636;12.164;2023-02-23T01:28:07;11.98;;;5.28;;
68247;SDS011;55064;49.636;12.164;2023-02-23T01:30:35;9.63;;;4.80;;
68247;SDS011;55064;49.636;12.164;2023-02-23T01:33:02;12.40;;;5.00;;
68247;SDS011;55064;49.636;12.164;2023-02-23T01:35:28;10.40;;;4.50;;
68247;SDS011;55064;49.636;12.164;2023-02-23T01:37:53;11.45;;;4.97;;
68247;SDS011;55064;49.636;12.164;2023-02-23T01:40:20;11.00;;;4.70;;
68247;SDS011;55064;49.636;12.164;2023-02-23T01:42:53;12.63;;;4.70;;
68247;SDS011;55064;49.636;12.164;2023-02-23T01:48:11;10.13;;;4.40;;
68247;SDS011;55064;49.636;12.164;2023-02-23T01:53:27;10.45;;;4.55;;
68247;SDS011;55064;49.636;12.164;2023-02-23T01:55:58;11.35;;;4.57;;
68247;SDS011;55064;49.636;12.164;2023-02-23T01:58:29;12.75;;;5.22;;
68247;SDS011;55064;49.636;12.164;2023-02-23T02:00:59;10.98;;;4.78;;
68247;SDS011;55064;49.636;12.164;2023-02-23T02:06:04;10.23;;;4.60;;
68247;SDS011;55064;49.636;12.164;2023-02-23T02:08:34;10.10;;;4.80;;
68247;SDS011;55064;49.636;12.164;2023-02-23T02:11:08;11.35;;;4.80;;
68247;SDS011;55064;49.636;12.164;2023-02-23T02:13:49;9.88;;;4.82;;
68247;SDS011;55064;49.636;12.164;2023-02-23T02:33:43;11.10;;;4.88;;
68247;SDS011;55064;49.636;12.164;2023-02-23T02:44:46;13.87;;;6.30;;
68247;SDS011;55064;49.636;12.164;2023-02-23T02:47:34;12.95;;;6.22;;
68247;SDS011;55064;49.636;12.164;2023-02-23T02:53:01;16.33;;;7.00;;
68247;SDS011;55064;49.636;12.164;2023-02-23T02:55:29;13.98;;;6.68;;
68247;SDS011;55064;49.636;12.164;2023-02-23T02:57:58;15.30;;;6.57;;
68247;SDS011;55064;49.636;12.164;2023-02-23T03:00:36;13.90;;;6.70;;
68247;SDS011;55064;49.636;12.164;2023-02-23T03:06:29;15.65;;;6.95;;
68247;SDS011;55064;49.636;12.164;2023-02-23T03:09:25;14.13;;;6.93;;
68247;SDS011;55064;49.636;12.164;2023-02-23T03:12:45;13.13;;;6.50;;
68247;SDS011;55064;49.636;12.164;2023-02-23T03:15:58;13.98;;;6.38;;
68247;SDS011;55064;49.636;12.164;2023-02-23T03:24:54;16.33;;;8.38;;
68247;SDS011;55064;49.636;12.164;2023-02-23T03:30:33;16.02;;;7.80;;
68247;SDS011;55064;49.636;12.164;2023-02-23T03:33:31;15.27;;;7.97;;
68247;SDS011;55064;49.636;12.164;2023-02-23T03:36:23;16.17;;;7.85;;
68247;SDS011;55064;49.636;12.164;2023-02-23T03:39:12;14.40;;;7.22;;
68247;SDS011;55064;49.636;12.164;2023-02-23T03:42:07;13.53;;;6.57;;
68247;SDS011;55064;49.636;12.164;2023-02-23T03:44:55;13.35;;;6.80;;
68247;SDS011;55064;49.636;12.164;2023-02-23T03:47:40;17.08;;;8.38;;
68247;SDS011;55064;49.636;12.164;2023-02-23T03:50:29;15.32;;;7.50;;
68247;SDS011;55064;49.636;12.164;2023-02-23T03:53:18;14.73;;;7.05;;
68247;SDS011;55064;49.636;12.164;2023-02-23T03:56:05;13.50;;;6.40;;
68247;SDS011;55064;49.636;12.164;2023-02-23T03:58:55;14.57;;;6.82;;
68247;SDS011;55064;49.636;12.164;2023-02-23T04:01:43;15.60;;;6.85;;
68247;SDS011;55064;49.636;12.164;2023-02-23T04:04:29;13.75;;;6.80;;
68247;SDS011;55064;49.636;12.164;2023-02-23T04:07:14;13.25;;;6.80;;
68247;SDS011;55064;49.636;12.164;2023-02-23T04:10:01;12.20;;;5.87;;
68247;SDS011;55064;49.636;12.164;2023-02-23T04:15:59;13.57;;;6.90;;
68247;SDS011;55064;49.636;12.164;2023-02-23T04:18:31;13.60;;;6.40;;
68247;SDS011;55064;49.636;12.164;2023-02-23T04:20:58;14.73;;;6.53;;
68247;SDS011;55064;49.636;12.164;2023-02-23T04:23:24;13.83;;;6.47;;
68247;SDS011;55064;49.636;12.164;2023-02-23T04:25:51;13.48;;;6.95;;
68247;SDS011;55064;49.636;12.164;2023-02-23T04:28:17;17.38;;;6.88;;
68247;SDS011;55064;49.636;12.164;2023-02-23T04:30:43;15.77;;;7.07;;
68247;SDS011;55064;49.636;12.164;2023-02-23T04:33:09;15.00;;;7.27;;
68247;SDS011;55064;49.636;12.164;2023-02-23T04:35:34;16.30;;;6.93;;
68247;SDS011;55064;49.636;12.164;2023-02-23T04:38:00;15.10;;;6.73;;
68247;SDS011;55064;49.636;12.164;2023-02-23T04:40:28;17.10;;;7.90;;
68247;SDS011;55064;49.636;12.164;2023-02-23T04:42:54;13.88;;;6.72;;
68247;SDS011;55064;49.636;12.164;2023-02-23T04:45:20;14.87;;;6.53;;
68247;SDS011;55064;49.636;12.164;2023-02-23T04:47:46;15.27;;;6.63;;
68247;SDS011;55064;49.636;12.164;2023-02-23T04:50:12;15.97;;;6.63;;
68247;SDS011;55064;49.636;12.164;2023-02-23T04:52:40;15.10;;;6.63;;
68247;SDS011;55064;49.636;12.164;2023-02-23T04:55:12;13.85;;;6.45;;
68247;SDS011;55064;49.636;12.164;2023-02-23T04:57:43;13.02;;;6.20;;
68247;SDS011;55064;49.636;12.164;2023-02-23T05:00:09;12.82;;;6.38;;
68247;SDS011;55064;49.636;12.164;2023-02-23T05:02:35;13.67;;;6.03;;
68247;SDS011;55064;49.636;12.164;2023-02-23T05:05:00;12.93;;;6.15;;
68247;SDS011;55064;49.636;12.164;2023-02-23T05:07:26;14.77;;;6.70;;
68247;SDS011;55064;49.636;12.164;2023-02-23T05:09:51;14.17;;;6.23;;
68247;SDS011;55064;49.636;12.164;2023-02-23T05:12:19;14.13;;;7.30;;
68247;SDS011;55064;49.636;12.164;2023-02-23T05:14:44;14.70;;;7.17;;
68247;SDS011;55064;49.636;12.164;2023-02-23T05:17:10;12.47;;;6.13;;
68247;SDS011;55064;49.636;12.164;2023-02-23T05:19:35;13.80;;;6.60;;
68247;SDS011;55064;49.636;12.164;2023-02-23T05:22:01;15.98;;;7.05;;
68247;SDS011;55064;49.636;12.164;2023-02-23T05:24:28;14.00;;;6.82;;
68247;SDS011;55064;49.636;12.164;2023-02-23T05:26:53;15.83;;;7.40;;
68247;SDS011;55064;49.636;12.164;2023-02-23T05:29:19;14.90;;;7.05;;
68247;SDS011;55064;49.636;12.164;2023-02-23T05:35:06;14.20;;;6.72;;
68247;SDS011;55064;49.636;12.164;2023-02-23T05:50:37;12.90;;;6.20;;
68247;SDS011;55064;49.636;12.164;2023-02-23T05:56:24;13.32;;;6.47;;
68247;SDS011;55064;49.636;12.164;2023-02-23T06:02:13;13.88;;;6.80;;
68247;SDS011;55064;49.636;12.164;2023-02-23T06:14:42;13.70;;;6.47;;
68247;SDS011;55064;49.636;12.164;2023-02-23T06:26:49;14.90;;;7.43;;
68247;SDS011;55064;49.636;12.164;2023-02-23T06:29:17;15.53;;;7.80;;
68247;SDS011;55064;49.636;12.164;2023-02-23T06:31:45;16.50;;;7.80;;
68247;SDS011;55064;49.636;12.164;2023-02-23T06:34:10;15.47;;;7.60;;
68247;SDS011;55064;49.636;12.164;2023-02-23T06:36:36;15.90;;;8.00;;
68247;SDS011;55064;49.636;12.164;2023-02-23T06:39:03;16.02;;;7.45;;
68247;SDS011;55064;49.636;12.164;2023-02-23T06:41:31;14.27;;;7.33;;
68247;SDS011;55064;49.636;12.164;2023-02-23T06:43:56;13.82;;;7.22;;
68247;SDS011;55064;49.636;12.164;2023-02-23T06:46:23;13.63;;;7.17;;
68247;SDS011;55064;49.636;12.164;2023-02-23T06:48:48;18.05;;;7.40;;
68247;SDS011;55064;49.636;12.164;2023-02-23T06:51:14;14.63;;;7.20;;
68247;SDS011;55064;49.636;12.164;2023-02-23T06:53:39;14.73;;;7.22;;
68247;SDS011;55064;49.636;12.164;2023-02-23T06:56:07;17.83;;;7.67;;
68247;SDS011;55064;49.636;12.164;2023-02-23T06:58:33;16.85;;;7.63;;
68247;SDS011;55064;49.636;12.164;2023-02-23T07:00:58;14.13;;;7.67;;
68247;SDS011;55064;49.636;12.164;2023-02-23T07:03:24;14.27;;;7.17;;
68247;SDS011;55064;49.636;12.164;2023-02-23T07:05:52;14.98;;;7.15;;
68247;SDS011;55064;49.636;12.164;2023-02-23T07:08:18;15.17;;;6.73;;
68247;SDS011;55064;49.636;12.164;2023-02-23T07:10:44;14.05;;;7.10;;
68247;SDS011;55064;49.636;12.164;2023-02-23T07:13:10;13.97;;;6.50;;
68247;SDS011;55064;49.636;12.164;2023-02-23T07:15:39;15.38;;;7.22;;
68247;SDS011;55064;49.636;12.164;2023-02-23T07:18:06;15.02;;;6.88;;
68247;SDS011;55064;49.636;12.164;2023-02-23T07:20:34;12.65;;;6.60;;
68247;SDS011;55064;49.636;12.164;2023-02-23T07:23:02;17.45;;;7.45;;
68247;SDS011;55064;49.636;12.164;2023-02-23T07:25:28;14.60;;;7.20;;
68247;SDS011;55064;49.636;12.164;2023-02-23T07:27:54;26.30;;;12.15;;
68247;SDS011;55064;49.636;12.164;2023-02-23T07:30:20;25.17;;;12.75;;
68247;SDS011;55064;49.636;12.164;2023-02-23T07:32:49;28.02;;;11.38;;
68247;SDS011;55064;49.636;12.164;2023-02-23T07:35:16;23.40;;;10.90;;
68247;SDS011;55064;49.636;12.164;2023-02-23T07:37:44;20.85;;;10.50;;
68247;SDS011;55064;49.636;12.164;2023-02-23T07:40:10;20.10;;;10.37;;
68247;SDS011;55064;49.636;12.164;2023-02-23T07:42:38;20.33;;;10.05;;
68247;SDS011;55064;49.636;12.164;2023-02-23T07:45:07;21.02;;;10.82;;
68247;SDS011;55064;49.636;12.164;2023-02-23T07:47:32;21.67;;;10.88;;
68247;SDS011;55064;49.636;12.164;2023-02-23T07:52:27;20.53;;;10.47;;
68247;SDS011;55064;49.636;12.164;2023-02-23T07:54:53;20.23;;;10.05;;
68247;SDS011;55064;49.636;12.164;2023-02-23T07:57:19;18.40;;;9.17;;
68247;SDS011;55064;49.636;12.164;2023-02-23T07:59:45;19.33;;;9.68;;
68247;SDS011;55064;49.636;12.164;2023-02-23T08:02:14;19.30;;;10.13;;
68247;SDS011;55064;49.636;12.164;2023-02-23T08:04:40;17.50;;;8.77;;
68247;SDS011;55064;49.636;12.164;2023-02-23T08:07:07;17.75;;;9.07;;
68247;SDS011;55064;49.636;12.164;2023-02-23T08:09:37;26.40;;;12.77;;
68247;SDS011;55064;49.636;12.164;2023-02-23T08:12:03;29.10;;;14.32;;
68247;SDS011;55064;49.636;12.164;2023-02-23T08:14:31;21.45;;;11.30;;
68247;SDS011;55064;49.636;12.164;2023-02-23T08:16:56;23.60;;;11.97;;
68247;SDS011;55064;49.636;12.164;2023-02-23T08:19:25;21.55;;;10.27;;
68247;SDS011;55064;49.636;12.164;2023-02-23T08:21:51;20.92;;;11.00;;
68247;SDS011;55064;49.636;12.164;2023-02-23T08:24:17;20.03;;;10.80;;
68247;SDS011;55064;49.636;12.164;2023-02-23T08:26:46;21.30;;;11.35;;
68247;SDS011;55064;49.636;12.164;2023-02-23T08:29:13;21.83;;;11.18;;
68247;SDS011;55064;49.636;12.164;2023-02-23T08:31:39;22.97;;;10.93;;
68247;SDS011;55064;49.636;12.164;2023-02-23T08:34:04;20.50;;;10.90;;
68247;SDS011;55064;49.636;12.164;2023-02-23T08:36:30;20.97;;;12.13;;
68247;SDS011;55064;49.636;12.164;2023-02-23T08:38:55;21.33;;;11.20;;
68247;SDS011;55064;49.636;12.164;2023-02-23T08:41:21;22.30;;;11.27;;
68247;SDS011;55064;49.636;12.164;2023-02-23T08:43:46;21.53;;;10.63;;
68247;SDS011;55064;49.636;12.164;2023-02-23T08:46:15;17.25;;;9.13;;
68247;SDS011;55064;49.636;12.164;2023-02-23T08:48:44;17.63;;;9.75;;
68247;SDS011;55064;49.636;12.164;2023-02-23T08:51:11;17.88;;;9.77;;
68247;SDS011;55064;49.636;12.164;2023-02-23T08:53:38;20.77;;;9.77;;
68247;SDS011;55064;49.636;12.164;2023-02-23T08:56:04;19.53;;;10.20;;
68247;SDS011;55064;49.636;12.164;2023-02-23T08:58:31;18.48;;;9.02;;
68247;SDS011;55064;49.636;12.164;2023-02-23T09:01:00;19.52;;;10.07;;
68247;SDS011;55064;49.636;12.164;2023-02-23T09:03:29;18.83;;;9.50;;
68247;SDS011;55064;49.636;12.164;2023-02-23T09:05:55;20.05;;;10.38;;
68247;SDS011;55064;49.636;12.164;2023-02-23T09:08:22;20.70;;;10.63;;
68247;SDS011;55064;49.636;12.164;2023-02-23T09:10:48;19.95;;;9.88;;
68247;SDS011;55064;49.636;12.164;2023-02-23T09:13:14;21.10;;;10.50;;
68247;SDS011;55064;49.636;12.164;2023-02-23T09:15:40;17.85;;;9.68;;
68247;SDS011;55064;49.636;12.164;2023-02-23T09:18:08;20.45;;;10.45;;
68247;SDS011;55064;49.636;12.164;2023-02-23T09:20:35;18.67;;;9.82;;
68247;SDS011;55064;49.636;12.164;2023-02-23T09:23:00;21.33;;;10.03;;
68247;SDS011;55064;49.636;12.164;2023-02-23T09:25:25;17.93;;;9.73;;
68247;SDS011;55064;49.636;12.164;2023-02-23T09:27:53;21.67;;;10.20;;
68247;SDS011;55064;49.636;12.164;2023-02-23T09:30:23;20.95;;;10.00;;
68247;SDS011;55064;49.636;12.164;2023-02-23T09:32:49;19.73;;;10.27;;
68247;SDS011;55064;49.636;12.164;2023-02-23T09:35:16;23.35;;;11.07;;
68247;SDS011;55064;49.636;12.164;2023-02-23T09:37:48;21.35;;;11.27;;
68247;SDS011;55064;49.636;12.164;2023-02-23T09:40:16;22.30;;;11.50;;
68247;SDS011;55064;49.636;12.164;2023-02-23T09:48:00;25.08;;;12.80;;
68247;SDS011;55064;49.636;12.164;2023-02-23T09:50:33;29.10;;;14.15;;
68247;SDS011;55064;49.636;12.164;2023-02-23T09:53:24;27.10;;;13.55;;
68247;SDS011;55064;49.636;12.164;2023-02-23T09:56:03;30.67;;;13.53;;
68247;SDS011;55064;49.636;12.164;2023-02-23T09:58:50;29.15;;;14.10;;
68247;SDS011;55064;49.636;12.164;2023-02-23T10:06:30;29.13;;;13.90;;
68247;SDS011;55064;49.636;12.164;2023-02-23T10:09:09;29.23;;;13.67;;
68247;SDS011;55064;49.636;12.164;2023-02-23T10:22:30;28.08;;;14.07;;
68247;SDS011;55064;49.636;12.164;2023-02-23T10:25:02;27.02;;;14.10;;
68247;SDS011;55064;49.636;12.164;2023-02-23T10:27:35;27.77;;;15.20;;
68247;SDS011;55064;49.636;12.164;2023-02-23T10:30:13;31.45;;;15.77;;
68247;SDS011;55064;49.636;12.164;2023-02-23T10:33:04;30.63;;;15.15;;
68247;SDS011;55064;49.636;12.164;2023-02-23T10:35:41;35.90;;;17.65;;
68247;SDS011;55064;49.636;12.164;2023-02-23T10:38:11;30.27;;;14.68;;
68247;SDS011;55064;49.636;12.164;2023-02-23T10:40:40;32.43;;;15.77;;
68247;SDS011;55064;49.636;12.164;2023-02-23T10:43:08;28.40;;;15.13;;
68247;SDS011;55064;49.636;12.164;2023-02-23T10:45:43;30.02;;;14.77;;
68247;SDS011;55064;49.636;12.164;2023-02-23T10:50:48;28.40;;;14.55;;
68247;SDS011;55064;49.636;12.164;2023-02-23T10:58:42;29.25;;;15.02;;
68247;SDS011;55064;49.636;12.164;2023-02-23T11:01:10;29.95;;;15.75;;
68247;SDS011;55064;49.636;12.164;2023-02-23T11:03:39;28.80;;;14.85;;
68247;SDS011;55064;49.636;12.164;2023-02-23T11:08:56;30.35;;;13.93;;
68247;SDS011;55064;49.636;12.164;2023-02-23T11:11:23;28.63;;;13.95;;
68247;SDS011;55064;49.636;12.164;2023-02-23T11:13:55;28.20;;;14.47;;
68247;SDS011;55064;49.636;12.164;2023-02-23T11:16:28;28.05;;;15.25;;
68247;SDS011;55064;49.636;12.164;2023-02-23T11:21:25;34.65;;;15.18;;
68247;SDS011;55064;49.636;12.164;2023-02-23T11:23:56;28.38;;;14.50;;
68247;SDS011;55064;49.636;12.164;2023-02-23T11:29:15;26.85;;;14.10;;
68247;SDS011;55064;49.636;12.164;2023-02-23T11:31:55;28.17;;;14.10;;
68247;SDS011;55064;49.636;12.164;2023-02-23T11:34:26;27.73;;;13.50;;
68247;SDS011;55064;49.636;12.164;2023-02-23T11:36:58;28.10;;;14.52;;
68247;SDS011;55064;49.636;12.164;2023-02-23T11:39:30;27.90;;;14.10;;
68247;SDS011;55064;49.636;12.164;2023-02-23T11:42:15;29.13;;;14.55;;
68247;SDS011;55064;49.636;12.164;2023-02-23T11:44:48;31.33;;;14.80;;
68247;SDS011;55064;49.636;12.164;2023-02-23T11:47:15;32.85;;;15.43;;
68247;SDS011;55064;49.636;12.164;2023-02-23T11:49:43;30.83;;;14.05;;
68247;SDS011;55064;49.636;12.164;2023-02-23T11:52:14;28.37;;;13.60;;
68247;SDS011;55064;49.636;12.164;2023-02-23T11:54:59;28.10;;;14.05;;
68247;SDS011;55064;49.636;12.164;2023-02-23T11:57:30;30.23;;;15.63;;
68247;SDS011;55064;49.636;12.164;2023-02-23T11:59:59;30.38;;;14.63;;
68247;SDS011;55064;49.636;12.164;2023-02-23T12:02:45;33.45;;;16.30;;
68247;SDS011;55064;49.636;12.164;2023-02-23T12:05:23;34.00;;;16.93;;
68247;SDS011;55064;49.636;12.164;2023-02-23T12:26:51;33.78;;;16.38;;
68247;SDS011;55064;49.636;12.164;2023-02-23T12:29:26;39.13;;;18.48;;
68247;SDS011;55064;49.636;12.164;2023-02-23T12:32:01;35.10;;;17.27;;
68247;SDS011;55064;49.636;12.164;2023-02-23T12:34:53;35.78;;;16.30;;
68247;SDS011;55064;49.636;12.164;2023-02-23T12:39:57;34.80;;;17.17;;
68247;SDS011;55064;49.636;12.164;2023-02-23T12:42:39;35.15;;;17.00;;
68247;SDS011;55064;49.636;12.164;2023-02-23T12:45:15;35.53;;;17.20;;
68247;SDS011;55064;49.636;12.164;2023-02-23T12:58:33;32.97;;;16.10;;
68247;SDS011;55064;49.636;12.164;2023-02-23T13:01:16;35.53;;;16.50;;
68247;SDS011;55064;49.636;12.164;2023-02-23T13:06:49;33.33;;;15.70;;
68247;SDS011;55064;49.636;12.164;2023-02-23T13:14:50;35.92;;;17.15;;
68247;SDS011;55064;49.636;12.164;2023-02-23T13:20:36;35.67;;;17.88;;
68247;SDS011;55064;49.636;12.164;2023-02-23T13:23:14;38.13;;;18.58;;
68247;SDS011;55064;49.636;12.164;2023-02-23T13:31:34;34.30;;;16.83;;
68247;SDS011;55064;49.636;12.164;2023-02-23T13:34:02;35.33;;;15.95;;
68247;SDS011;55064;49.636;12.164;2023-02-23T13:36:32;34.75;;;15.75;;
68247;SDS011;55064;49.636;12.164;2023-02-23T13:47:52;31.23;;;14.60;;
68247;SDS011;55064;49.636;12.164;2023-02-23T13:56:01;29.35;;;15.02;;
68247;SDS011;55064;49.636;12.164;2023-02-23T13:58:31;31.98;;;15.07;;
68247;SDS011;55064;49.636;12.164;2023-02-23T14:01:04;33.55;;;15.55;;
68247;SDS011;55064;49.636;12.164;2023-02-23T14:03:35;34.33;;;15.52;;
68247;SDS011;55064;49.636;12.164;2023-02-23T14:06:14;34.10;;;16.33;;
68247;SDS011;55064;49.636;12.164;2023-02-23T14:08:43;31.85;;;15.50;;
68247;SDS011;55064;49.636;12.164;2023-02-23T14:14:08;33.47;;;16.17;;
68247;SDS011;55064;49.636;12.164;2023-02-23T14:16:36;33.53;;;15.90;;
68247;SDS011;55064;49.636;12.164;2023-02-23T14:21:40;37.55;;;17.02;;
68247;SDS011;55064;49.636;12.164;2023-02-23T14:24:23;33.90;;;16.90;;
68247;SDS011;55064;49.636;12.164;2023-02-23T14:29:29;37.65;;;15.55;;
68247;SDS011;55064;49.636;12.164;2023-02-23T14:32:01;36.17;;;16.80;;
68247;SDS011;55064;49.636;12.164;2023-02-23T14:39:58;35.40;;;15.88;;
68247;SDS011;55064;49.636;12.164;2023-02-23T14:42:48;32.17;;;15.63;;
68247;SDS011;55064;49.636;12.164;2023-02-23T14:45:26;34.90;;;16.67;;
68247;SDS011;55064;49.636;12.164;2023-02-23T14:47:57;40.60;;;17.35;;
68247;SDS011;55064;49.636;12.164;2023-02-23T14:50:27;39.17;;;17.37;;
68247;SDS011;55064;49.636;12.164;2023-02-23T14:52:55;34.97;;;17.17;;
68247;SDS011;55064;49.636;12.164;2023-02-23T14:55:32;36.65;;;17.80;;
68247;SDS011;55064;49.636;12.164;2023-02-23T14:58:01;38.50;;;17.38;;
68247;SDS011;55064;49.636;12.164;2023-02-23T15:00:32;39.28;;;17.98;;
68247;SDS011;55064;49.636;12.164;2023-02-23T15:03:08;35.90;;;17.70;;
68247;SDS011;55064;49.636;12.164;2023-02-23T15:05:41;36.35;;;17.85;;
68247;SDS011;55064;49.636;12.164;2023-02-23T15:08:10;36.10;;;16.38;;
68247;SDS011;55064;49.636;12.164;2023-02-23T15:10:39;36.30;;;17.63;;
68247;SDS011;55064;49.636;12.164;2023-02-23T15:16:46;36.23;;;16.33;;
68247;SDS011;55064;49.636;12.164;2023-02-23T15:18:56;34.58;;;17.02;;
68247;SDS011;55064;49.636;12.164;2023-02-23T15:21:23;36.47;;;16.50;;
68247;SDS011;55064;49.636;12.164;2023-02-23T15:23:49;37.53;;;17.33;;
68247;SDS011;55064;49.636;12.164;2023-02-23T15:26:17;36.15;;;17.33;;
68247;SDS011;55064;49.636;12.164;2023-02-23T15:28:50;30.83;;;15.35;;
68247;SDS011;55064;49.636;12.164;2023-02-23T15:31:18;31.33;;;14.37;;
68247;SDS011;55064;49.636;12.164;2023-02-23T15:33:45;27.95;;;13.23;;
68247;SDS011;55064;49.636;12.164;2023-02-23T15:36:30;27.65;;;12.20;;
68247;SDS011;55064;49.636;12.164;2023-02-23T15:38:59;25.48;;;11.00;;
68247;SDS011;55064;49.636;12.164;2023-02-23T15:41:29;25.98;;;11.25;;
68247;SDS011;55064;49.636;12.164;2023-02-23T15:44:03;26.83;;;12.13;;
68247;SDS011;55064;49.636;12.164;2023-02-23T15:46:43;26.70;;;12.07;;
68247;SDS011;55064;49.636;12.164;2023-02-23T15:49:12;25.52;;;11.43;;
68247;SDS011;55064;49.636;12.164;2023-02-23T15:57:29;30.27;;;12.60;;
68247;SDS011;55064;49.636;12.164;2023-02-23T15:59:51;28.20;;;12.95;;
68247;SDS011;55064;49.636;12.164;2023-02-23T16:02:21;29.80;;;12.07;;
68247;SDS011;55064;49.636;12.164;2023-02-23T16:04:49;28.10;;;12.98;;
68247;SDS011;55064;49.636;12.164;2023-02-23T16:07:18;30.88;;;12.80;;
68247;SDS011;55064;49.636;12.164;2023-02-23T16:10:37;28.07;;;11.97;;
68247;SDS011;55064;49.636;12.164;2023-02-23T16:12:52;28.95;;;13.60;;
68247;SDS011;55064;49.636;12.164;2023-02-23T16:15:25;27.33;;;12.88;;
68247;SDS011;55064;49.636;12.164;2023-02-23T16:17:57;27.63;;;13.07;;
68247;SDS011;55064;49.636;12.164;2023-02-23T16:20:33;28.30;;;12.68;;
68247;SDS011;55064;49.636;12.164;2023-02-23T16:23:07;28.60;;;13.23;;
68247;SDS011;55064;49.636;12.164;2023-02-23T16:25:47;28.13;;;13.38;;
68247;SDS011;55064;49.636;12.164;2023-02-23T16:28:18;29.15;;;13.07;;
68247;SDS011;55064;49.636;12.164;2023-02-23T16:30:50;31.35;;;13.52;;
68247;SDS011;55064;49.636;12.164;2023-02-23T16:33:39;31.00;;;13.80;;
68247;SDS011;55064;49.636;12.164;2023-02-23T16:38:45;28.67;;;13.27;;
68247;SDS011;55064;49.636;12.164;2023-02-23T16:41:23;27.63;;;12.75;;
68247;SDS011;55064;49.636;12.164;2023-02-23T16:43:50;33.95;;;13.38;;
68247;SDS011;55064;49.636;12.164;2023-02-23T16:46:19;28.95;;;12.77;;
68247;SDS011;55064;49.636;12.164;2023-02-23T16:48:48;27.87;;;12.33;;
68247;SDS011;55064;49.636;12.164;2023-02-23T16:51:15;30.73;;;14.80;;
68247;SDS011;55064;49.636;12.164;2023-02-23T16:53:43;29.83;;;14.15;;
68247;SDS011;55064;49.636;12.164;2023-02-23T16:56:13;29.92;;;13.93;;
68247;SDS011;55064;49.636;12.164;2023-02-23T16:58:44;28.08;;;13.13;;
68247;SDS011;55064;49.636;12.164;2023-02-23T17:01:12;27.53;;;13.03;;
68247;SDS011;55064;49.636;12.164;2023-02-23T17:03:39;32.20;;;14.38;;
68247;SDS011;55064;49.636;12.164;2023-02-23T17:06:06;32.50;;;14.35;;
68247;SDS011;55064;49.636;12.164;2023-02-23T17:08:32;31.10;;;14.98;;
68247;SDS011;55064;49.636;12.164;2023-02-23T17:10:58;33.00;;;16.60;;
68247;SDS011;55064;49.636;12.164;2023-02-23T17:13:26;32.93;;;17.40;;
68247;SDS011;55064;49.636;12.164;2023-02-23T17:16:03;36.65;;;17.35;;
68247;SDS011;55064;49.636;12.164;2023-02-23T17:18:33;32.47;;;15.93;;
68247;SDS011;55064;49.636;12.164;2023-02-23T17:21:08;32.33;;;15.82;;
68247;SDS011;55064;49.636;12.164;2023-02-23T17:23:38;35.25;;;16.83;;
68247;SDS011;55064;49.636;12.164;2023-02-23T17:26:12;34.13;;;15.90;;
68247;SDS011;55064;49.636;12.164;2023-02-23T17:28:38;36.13;;;17.63;;
68247;SDS011;55064;49.636;12.164;2023-02-23T17:31:04;33.38;;;16.52;;
68247;SDS011;55064;49.636;12.164;2023-02-23T17:33:31;31.20;;;15.25;;
68247;SDS011;55064;49.636;12.164;2023-02-23T17:36:02;34.60;;;15.97;;
68247;SDS011;55064;49.636;12.164;2023-02-23T17:38:29;35.05;;;16.75;;
68247;SDS011;55064;49.636;12.164;2023-02-23T17:41:07;37.78;;;17.15;;
68247;SDS011;55064;49.636;12.164;2023-02-23T17:43:34;33.90;;;16.42;;
68247;SDS011;55064;49.636;12.164;2023-02-23T17:46:03;31.38;;;14.45;;
68247;SDS011;55064;49.636;12.164;2023-02-23T17:48:29;28.73;;;13.30;;
68247;SDS011;55064;49.636;12.164;2023-02-23T17:51:02;30.27;;;14.30;;
68247;SDS011;55064;49.636;12.164;2023-02-23T17:53:33;36.53;;;17.25;;
68247;SDS011;55064;49.636;12.164;2023-02-23T17:55:59;41.78;;;18.70;;
68247;SDS011;55064;49.636;12.164;2023-02-23T17:58:25;37.63;;;17.30;;
68247;SDS011;55064;49.636;12.164;2023-02-23T18:00:54;37.10;;;16.98;;
68247;SDS011;55064;49.636;12.164;2023-02-23T18:03:22;34.53;;;15.88;;
68247;SDS011;55064;49.636;12.164;2023-02-23T18:05:49;32.70;;;15.63;;
68247;SDS011;55064;49.636;12.164;2023-02-23T18:08:16;33.58;;;16.23;;
68247;SDS011;55064;49.636;12.164;2023-02-23T18:10:47;32.85;;;14.90;;
68247;SDS011;55064;49.636;12.164;2023-02-23T18:13:14;30.40;;;14.02;;
68247;SDS011;55064;49.636;12.164;2023-02-23T18:15:41;30.33;;;13.43;;
68247;SDS011;55064;49.636;12.164;2023-02-23T18:18:09;28.83;;;13.30;;
68247;SDS011;55064;49.636;12.164;2023-02-23T18:20:34;27.77;;;13.00;;
68247;SDS011;55064;49.636;12.164;2023-02-23T18:23:04;33.15;;;14.32;;